createdAt,value
2022-07-26T00:01:31.722Z,4.80
2022-07-26T00:03:59.697Z,3.10
2022-07-26T00:06:26.873Z,0.97
2022-07-26T00:08:54.136Z,1.00
2022-07-26T00:11:21.701Z,1.03
2022-07-26T00:13:48.818Z,0.90
2022-07-26T00:16:15.848Z,4.90
2022-07-26T00:18:43.007Z,7.83
2022-07-26T00:21:09.997Z,9.27
2022-07-26T00:23:39.171Z,10.63
2022-07-26T00:26:06.027Z,10.57
2022-07-26T00:28:32.970Z,5.27
2022-07-26T00:30:59.912Z,2.43
2022-07-26T00:33:26.852Z,1.00
2022-07-26T00:35:53.755Z,1.10
2022-07-26T00:38:20.664Z,1.10
2022-07-26T00:40:47.526Z,3.20
2022-07-26T00:43:14.548Z,8.20
2022-07-26T00:45:41.748Z,8.60
2022-07-26T00:48:09.023Z,8.63
2022-07-26T00:50:36.173Z,10.97
2022-07-26T00:53:03.284Z,4.90
2022-07-26T00:55:30.227Z,2.20
2022-07-26T00:57:57.397Z,1.00
2022-07-26T01:00:27.934Z,1.00
2022-07-26T01:02:56.034Z,1.47
2022-07-26T01:05:23.796Z,0.97
2022-07-26T01:07:50.848Z,1.67
2022-07-26T01:10:17.711Z,2.23
2022-07-26T01:12:45.022Z,8.10
2022-07-26T01:15:13.941Z,8.67
2022-07-26T01:17:41.647Z,7.13
2022-07-26T01:20:10.940Z,10.40
2022-07-26T01:22:38.098Z,9.87
2022-07-26T01:25:06.304Z,10.27
2022-07-26T01:27:34.580Z,4.30
2022-07-26T01:30:01.447Z,6.00
2022-07-26T01:32:28.391Z,1.50
2022-07-26T01:34:55.366Z,1.40
2022-07-26T01:37:22.355Z,1.03
2022-07-26T01:39:49.320Z,0.90
2022-07-26T01:42:16.194Z,3.43
2022-07-26T01:44:43.130Z,6.93
2022-07-26T01:47:10.091Z,9.57
2022-07-26T01:49:36.932Z,10.27
2022-07-26T01:52:04.091Z,3.63
2022-07-26T01:54:30.974Z,2.17
2022-07-26T01:56:57.846Z,0.90
2022-07-26T01:59:25.004Z,1.70
2022-07-26T02:01:52.131Z,1.00
2022-07-26T02:04:37.557Z,1.03
2022-07-26T02:07:05.562Z,4.60
2022-07-26T02:09:39.711Z,10.60
2022-07-26T02:12:07.228Z,9.87
2022-07-26T02:14:34.186Z,3.30
2022-07-26T02:17:01.234Z,3.30
2022-07-26T02:19:29.073Z,1.00
2022-07-26T02:21:56.395Z,0.93
2022-07-26T02:24:23.530Z,1.03
2022-07-26T02:26:50.906Z,1.77
2022-07-26T02:29:17.806Z,2.60
2022-07-26T02:31:44.722Z,7.60
2022-07-26T02:34:16.194Z,4.67
2022-07-26T02:36:43.230Z,7.93
2022-07-26T02:39:10.103Z,9.43
2022-07-26T02:41:36.976Z,10.00
2022-07-26T02:44:04.115Z,3.33
2022-07-26T02:46:31.160Z,2.47
2022-07-26T02:48:59.728Z,1.10
2022-07-26T02:51:27.333Z,1.63
2022-07-26T02:53:54.209Z,0.90
2022-07-26T02:56:21.441Z,1.37
2022-07-26T02:58:48.354Z,1.23
2022-07-26T03:01:15.288Z,7.63
2022-07-26T03:03:44.880Z,7.87
2022-07-26T03:06:15.570Z,5.43
2022-07-26T03:08:42.449Z,7.23
2022-07-26T03:11:12.130Z,9.80
2022-07-26T03:13:39.422Z,9.23
2022-07-26T03:16:07.746Z,9.90
2022-07-26T03:18:34.726Z,8.53
2022-07-26T03:21:01.922Z,5.67
2022-07-26T03:23:28.925Z,2.83
2022-07-26T03:25:56.059Z,0.93
2022-07-26T03:28:22.996Z,1.67
2022-07-26T03:30:49.937Z,1.00
2022-07-26T03:33:17.027Z,4.93
2022-07-26T03:35:43.903Z,7.77
2022-07-26T03:38:11.644Z,10.77
2022-07-26T03:40:38.714Z,10.93
2022-07-26T03:43:05.585Z,10.73
2022-07-26T03:45:32.448Z,7.73
2022-07-26T03:47:59.300Z,3.70
2022-07-26T03:50:26.239Z,1.77
2022-07-26T03:52:53.129Z,1.10
2022-07-26T03:55:38.991Z,1.40
2022-07-26T03:58:05.818Z,11.00
2022-07-26T04:00:32.710Z,7.40
2022-07-26T04:03:00.065Z,3.07
2022-07-26T04:05:27.161Z,1.67
2022-07-26T04:07:54.904Z,1.30
2022-07-26T04:10:23.264Z,1.00
2022-07-26T04:12:50.619Z,1.07
2022-07-26T04:15:19.154Z,2.10
2022-07-26T04:17:48.431Z,3.87
2022-07-26T04:20:15.973Z,6.40
2022-07-26T04:22:43.521Z,9.23
2022-07-26T04:25:10.759Z,10.77
2022-07-26T04:27:38.237Z,9.43
2022-07-26T04:30:08.573Z,11.97
2022-07-26T04:32:39.470Z,11.43
2022-07-26T04:35:07.215Z,12.37
2022-07-26T04:37:44.158Z,4.03
2022-07-26T04:40:13.127Z,12.93
2022-07-26T04:42:40.042Z,10.97
2022-07-26T04:45:08.616Z,10.00
2022-07-26T04:47:35.681Z,10.33
2022-07-26T04:50:04.248Z,5.57
2022-07-26T04:52:31.227Z,2.23
2022-07-26T04:55:00.835Z,1.83
2022-07-26T04:57:27.742Z,1.73
2022-07-26T05:00:16.716Z,1.13
2022-07-26T05:02:41.905Z,10.50
2022-07-26T05:05:09.098Z,11.03
2022-07-26T05:07:42.967Z,12.87
2022-07-26T05:10:10.346Z,8.23
2022-07-26T05:12:37.273Z,12.10
2022-07-26T05:15:05.621Z,3.57
2022-07-26T05:17:41.545Z,10.73
2022-07-26T05:20:09.513Z,12.63
2022-07-26T05:22:37.041Z,11.80
2022-07-26T05:25:05.453Z,3.93
2022-07-26T05:27:32.343Z,10.17
2022-07-26T05:29:59.504Z,3.20
2022-07-26T05:32:28.130Z,1.03
2022-07-26T05:34:55.128Z,1.20
2022-07-26T05:37:22.063Z,1.23
2022-07-26T05:39:49.025Z,1.43
2022-07-26T05:42:15.900Z,6.30
2022-07-26T05:44:42.948Z,9.73
2022-07-26T05:47:10.260Z,9.97
2022-07-26T05:49:39.931Z,11.47
2022-07-26T05:52:08.164Z,10.53
2022-07-26T05:54:35.334Z,7.87
2022-07-26T05:57:02.988Z,10.03
2022-07-26T05:59:29.931Z,2.87
2022-07-26T06:01:56.949Z,1.20
2022-07-26T06:04:25.960Z,0.90
2022-07-26T06:06:54.900Z,1.20
2022-07-26T06:09:24.357Z,1.07
2022-07-26T06:11:51.465Z,1.10
2022-07-26T06:14:18.633Z,2.50
2022-07-26T06:16:49.793Z,6.63
2022-07-26T06:19:16.789Z,3.77
2022-07-26T06:21:45.734Z,8.03
2022-07-26T06:24:12.932Z,8.83
2022-07-26T06:26:40.285Z,11.50
2022-07-26T06:29:07.359Z,11.27
2022-07-26T06:31:34.360Z,3.70
2022-07-26T06:34:01.246Z,2.80
2022-07-26T06:36:30.833Z,2.40
2022-07-26T06:38:58.731Z,1.67
2022-07-26T06:41:26.322Z,1.50
2022-07-26T06:43:53.618Z,1.00
2022-07-26T06:46:22.002Z,1.27
2022-07-26T06:48:52.783Z,2.30
2022-07-26T06:51:20.155Z,1.17
2022-07-26T06:54:03.857Z,8.80
2022-07-26T06:56:32.502Z,2.53
2022-07-26T06:58:59.323Z,2.60
2022-07-26T07:01:59.709Z,1.10
2022-07-26T07:04:13.272Z,8.57
2022-07-26T07:06:40.708Z,11.03
2022-07-26T07:09:08.955Z,11.20
2022-07-26T07:11:36.577Z,10.03
2022-07-26T07:14:05.293Z,2.90
2022-07-26T07:16:32.735Z,6.70
2022-07-26T07:18:59.670Z,3.20
2022-07-26T07:21:27.512Z,1.07
2022-07-26T07:23:54.516Z,0.93
2022-07-26T07:26:21.366Z,1.10
2022-07-26T07:28:48.637Z,2.70
2022-07-26T07:31:15.889Z,6.93
2022-07-26T07:33:52.702Z,8.53
2022-07-26T07:36:21.146Z,1.20
2022-07-26T07:38:50.923Z,2.30
2022-07-26T07:41:19.031Z,2.70
2022-07-26T07:43:46.040Z,5.80
2022-07-26T07:46:13.268Z,8.77
2022-07-26T07:48:46.591Z,9.63
2022-07-26T07:51:14.468Z,8.53
2022-07-26T07:53:41.348Z,9.20
2022-07-26T07:56:08.784Z,10.23
2022-07-26T07:58:35.656Z,10.47
2022-07-26T08:01:02.713Z,8.77
2022-07-26T08:03:38.896Z,3.40
2022-07-26T08:06:07.989Z,11.40
2022-07-26T08:08:35.259Z,4.17
2022-07-26T08:11:02.525Z,3.53
2022-07-26T08:13:31.038Z,3.10
2022-07-26T08:15:59.359Z,1.13
2022-07-26T08:18:27.993Z,1.83
2022-07-26T08:20:55.635Z,0.97
2022-07-26T08:23:23.379Z,2.03
2022-07-26T08:25:56.969Z,1.10
2022-07-26T08:31:17.077Z,5.47
2022-07-26T08:33:45.809Z,7.80
2022-07-26T08:36:14.601Z,8.13
2022-07-26T08:38:41.950Z,9.33
2022-07-26T08:41:08.874Z,11.47
2022-07-26T08:43:46.676Z,9.63
2022-07-26T08:46:24.137Z,2.27
2022-07-26T08:48:52.130Z,1.37
2022-07-26T08:51:20.793Z,1.23
2022-07-26T08:53:48.273Z,2.23
2022-07-26T08:56:15.095Z,7.80
2022-07-26T08:58:43.563Z,9.97
2022-07-26T09:01:15.238Z,10.10
2022-07-26T09:03:43.314Z,9.93
2022-07-26T09:06:21.049Z,9.83
2022-07-26T09:08:50.658Z,2.80
2022-07-26T09:11:23.599Z,2.90
2022-07-26T09:13:58.426Z,1.43
2022-07-26T09:16:25.907Z,1.00
2022-07-26T09:18:52.993Z,1.20
2022-07-26T09:21:46.802Z,1.20
2022-07-26T09:24:14.206Z,8.60
2022-07-26T09:26:41.227Z,9.00
2022-07-26T09:29:13.490Z,8.20
2022-07-26T09:31:40.750Z,9.53
2022-07-26T09:34:08.668Z,10.30
2022-07-26T09:36:54.354Z,10.07
2022-07-26T09:39:22.746Z,1.27
2022-07-26T09:42:26.646Z,2.87
2022-07-26T09:44:55.577Z,1.47
2022-07-26T09:47:22.833Z,1.27
2022-07-26T09:49:49.900Z,1.50
2022-07-26T09:52:19.300Z,3.60
2022-07-26T09:54:49.425Z,5.03
2022-07-26T09:57:18.080Z,5.17
2022-07-26T09:59:45.583Z,7.40
2022-07-26T10:02:14.241Z,8.60
2022-07-26T10:04:42.459Z,7.70
2022-07-26T10:07:10.386Z,9.00
2022-07-26T10:09:53.127Z,8.27
2022-07-26T10:12:22.798Z,1.20
2022-07-26T10:14:52.180Z,2.60
2022-07-26T10:17:32.352Z,1.80
2022-07-26T10:20:09.165Z,6.50
2022-07-26T10:22:40.664Z,10.57
2022-07-26T10:25:19.785Z,9.50
2022-07-26T10:27:55.766Z,3.40
2022-07-26T10:30:33.317Z,1.10
2022-07-26T10:33:03.307Z,2.27
2022-07-26T10:35:36.285Z,2.93
2022-07-26T10:38:06.217Z,7.63
2022-07-26T10:40:33.408Z,7.23
2022-07-26T10:43:39.459Z,3.03
2022-07-26T10:46:13.651Z,3.00
2022-07-26T10:49:04.223Z,9.30
2022-07-26T10:51:34.335Z,1.87
2022-07-26T10:54:06.113Z,3.30
2022-07-26T10:56:33.911Z,7.30
2022-07-26T10:59:01.961Z,2.57
2022-07-26T11:01:37.005Z,1.20
2022-07-26T11:04:04.956Z,5.07
2022-07-26T11:06:32.799Z,2.63
2022-07-26T11:09:10.300Z,2.33
2022-07-26T11:11:37.359Z,9.60
2022-07-26T11:14:09.656Z,4.40
2022-07-26T11:16:42.474Z,9.30
2022-07-26T11:19:29.374Z,8.23
2022-07-26T11:21:59.093Z,1.00
2022-07-26T11:24:27.133Z,1.43
2022-07-26T11:26:54.803Z,0.90
2022-07-26T11:29:38.009Z,1.60
2022-07-26T11:32:21.825Z,7.70
2022-07-26T11:35:01.014Z,1.77
2022-07-26T11:37:28.344Z,1.53
2022-07-26T11:39:55.308Z,1.03
2022-07-26T11:42:22.368Z,0.83
2022-07-26T11:44:50.009Z,1.30
2022-07-26T11:47:20.241Z,4.40
2022-07-26T11:50:00.633Z,3.33
2022-07-26T11:52:35.292Z,4.93
2022-07-26T11:55:02.160Z,2.47
2022-07-26T11:57:32.852Z,1.60
2022-07-26T12:00:01.239Z,2.37
2022-07-26T12:02:29.493Z,1.33
2022-07-26T12:05:35.006Z,0.80
2022-07-26T12:08:04.532Z,2.13
2022-07-26T12:10:31.846Z,2.63
2022-07-26T12:13:10.049Z,0.90
2022-07-26T12:15:51.365Z,9.27
2022-07-26T12:18:29.364Z,2.07
2022-07-26T12:21:07.809Z,1.10
2022-07-26T12:24:01.449Z,4.63
2022-07-26T12:26:30.864Z,0.97
2022-07-26T12:28:59.828Z,1.57
2022-07-26T12:31:29.479Z,1.00
2022-07-26T12:33:57.226Z,1.03
2022-07-26T12:36:27.626Z,0.90
2022-07-26T12:38:58.268Z,1.00
2022-07-26T12:41:39.206Z,1.03
2022-07-26T12:44:08.540Z,6.23
2022-07-26T12:46:36.437Z,8.60
2022-07-26T12:49:04.613Z,5.77
2022-07-26T12:51:31.913Z,2.07
2022-07-26T12:53:58.970Z,1.23
2022-07-26T12:56:26.189Z,0.87
2022-07-26T12:58:54.221Z,0.90
2022-07-26T13:01:21.507Z,1.10
2022-07-26T13:03:48.533Z,2.20
2022-07-26T13:06:15.350Z,7.00
2022-07-26T13:08:42.223Z,6.83
2022-07-26T13:11:09.176Z,10.50
2022-07-26T13:13:36.097Z,8.83
2022-07-26T13:16:06.650Z,6.50
2022-07-26T13:18:36.546Z,7.93
2022-07-26T13:21:03.430Z,5.93
2022-07-26T13:23:30.337Z,2.53
2022-07-26T13:25:57.267Z,0.97
2022-07-26T13:28:24.674Z,1.00
2022-07-26T13:30:51.638Z,1.00
2022-07-26T13:33:18.813Z,1.97
2022-07-26T13:35:45.865Z,6.10
2022-07-26T13:38:19.761Z,3.33
2022-07-26T13:40:46.789Z,4.70
2022-07-26T13:43:13.768Z,8.13
2022-07-26T13:45:40.900Z,6.57
2022-07-26T13:48:08.323Z,9.23
2022-07-26T13:50:35.270Z,4.23
2022-07-26T13:53:02.374Z,1.90
2022-07-26T13:55:29.397Z,1.40
2022-07-26T13:57:57.975Z,1.00
2022-07-26T14:00:30.060Z,1.07
2022-07-26T14:03:00.908Z,0.90
2022-07-26T14:05:28.313Z,0.90
2022-07-26T14:07:55.786Z,1.00
2022-07-26T14:10:23.559Z,1.43
2022-07-26T14:12:50.973Z,0.90
2022-07-26T14:15:22.169Z,3.20
2022-07-26T14:17:51.544Z,0.90
2022-07-26T14:20:18.436Z,2.37
2022-07-26T14:22:45.576Z,6.30
2022-07-26T14:25:12.682Z,6.20
2022-07-26T14:27:39.620Z,8.27
2022-07-26T14:30:07.265Z,5.83
2022-07-26T14:32:34.212Z,4.03
2022-07-26T14:35:01.129Z,2.50
2022-07-26T14:37:41.558Z,1.30
2022-07-26T14:40:15.836Z,6.07
2022-07-26T14:42:43.137Z,6.53
2022-07-26T14:45:10.748Z,8.23
2022-07-26T14:47:37.884Z,7.40
2022-07-26T14:50:07.730Z,3.10
2022-07-26T14:52:40.446Z,3.07
2022-07-26T14:55:08.063Z,7.97
2022-07-26T14:57:39.050Z,3.10
2022-07-26T15:00:09.704Z,8.20
2022-07-26T15:02:41.924Z,6.37
2022-07-26T15:05:10.434Z,6.60
2022-07-26T15:07:37.868Z,11.83
2022-07-26T15:10:05.665Z,4.03
2022-07-26T15:12:32.565Z,3.77
2022-07-26T15:14:59.566Z,1.50
2022-07-26T15:17:26.952Z,1.17
2022-07-26T15:19:53.962Z,1.00
2022-07-26T15:22:21.271Z,1.03
2022-07-26T15:24:48.296Z,2.90
2022-07-26T15:27:15.167Z,6.53
2022-07-26T15:29:42.127Z,8.50
2022-07-26T15:32:09.223Z,7.40
2022-07-26T15:34:36.195Z,6.80
2022-07-26T15:37:03.131Z,5.87
2022-07-26T15:39:30.138Z,2.93
2022-07-26T15:42:00.366Z,2.70
2022-07-26T15:44:29.536Z,1.37
2022-07-26T15:46:56.683Z,1.20
2022-07-26T15:49:23.592Z,1.00
2022-07-26T15:51:51.537Z,1.40
2022-07-26T15:54:20.571Z,2.17
2022-07-26T15:56:47.415Z,4.30
2022-07-26T15:59:14.276Z,7.10
2022-07-26T16:01:41.364Z,7.63
2022-07-26T16:04:08.528Z,7.13
2022-07-26T16:06:35.590Z,3.37
2022-07-26T16:09:19.426Z,2.57
2022-07-26T16:11:47.794Z,5.50
2022-07-26T16:14:15.778Z,6.23
2022-07-26T16:16:42.755Z,6.00
2022-07-26T16:19:10.097Z,8.00
2022-07-26T16:21:37.511Z,5.67
2022-07-26T16:24:07.478Z,3.83
2022-07-26T16:26:35.212Z,4.10
2022-07-26T16:29:02.392Z,2.10
2022-07-26T16:31:30.024Z,0.80
2022-07-26T16:33:57.307Z,1.60
2022-07-26T16:36:24.262Z,1.10
2022-07-26T16:38:51.151Z,1.10
2022-07-26T16:41:17.995Z,3.30
2022-07-26T16:43:45.315Z,5.80
2022-07-26T16:46:12.312Z,5.77
2022-07-26T16:48:39.348Z,6.93
2022-07-26T16:51:06.305Z,5.90
2022-07-26T16:53:33.419Z,5.17
2022-07-26T16:56:00.529Z,3.33
2022-07-26T16:58:27.575Z,1.00
2022-07-26T17:00:54.633Z,0.90
2022-07-26T17:03:21.732Z,0.97
2022-07-26T17:05:48.605Z,2.40
2022-07-26T17:08:15.768Z,6.60
2022-07-26T17:10:43.406Z,6.73
2022-07-26T17:13:10.319Z,7.80
2022-07-26T17:15:37.252Z,7.80
2022-07-26T17:18:04.753Z,4.87
2022-07-26T17:20:31.678Z,1.97
2022-07-26T17:22:58.656Z,1.80
2022-07-26T17:25:25.608Z,1.37
2022-07-26T17:27:53.139Z,1.20
2022-07-26T17:30:20.011Z,1.33
2022-07-26T17:32:47.140Z,4.33
2022-07-26T17:35:14.305Z,6.43
2022-07-26T17:37:41.373Z,6.30
2022-07-26T17:40:09.271Z,7.60
2022-07-26T17:42:36.938Z,7.70
2022-07-26T17:45:06.195Z,5.23
2022-07-26T17:47:33.074Z,3.70
2022-07-26T17:50:26.414Z,2.33
2022-07-26T17:52:49.684Z,1.87
2022-07-26T17:55:18.603Z,5.37
2022-07-26T17:57:46.460Z,6.23
2022-07-26T18:00:14.195Z,6.30
2022-07-26T18:02:41.390Z,8.27
2022-07-26T18:05:08.674Z,7.33
2022-07-26T18:07:35.585Z,3.43
2022-07-26T18:10:02.525Z,2.93
2022-07-26T18:12:30.576Z,1.40
2022-07-26T18:14:57.732Z,0.90
2022-07-26T18:17:24.741Z,1.37
2022-07-26T18:19:51.673Z,0.83
2022-07-26T18:22:18.546Z,2.37
2022-07-26T18:24:45.511Z,8.73
2022-07-26T18:27:12.416Z,8.33
2022-07-26T18:29:39.300Z,8.83
2022-07-26T18:32:06.699Z,8.03
2022-07-26T18:34:33.540Z,7.47
2022-07-26T18:37:00.452Z,2.37
2022-07-26T18:39:32.600Z,0.80
2022-07-26T18:42:00.250Z,2.50
2022-07-26T18:44:27.310Z,1.00
2022-07-26T18:46:56.579Z,1.33
2022-07-26T18:49:30.806Z,0.90
2022-07-26T18:52:02.871Z,1.10
2022-07-26T18:54:33.123Z,3.50
2022-07-26T18:57:00.110Z,2.00
2022-07-26T18:59:27.091Z,0.90
2022-07-26T19:01:54.459Z,0.70
2022-07-26T19:04:21.730Z,1.00
2022-07-26T19:06:49.837Z,2.37
2022-07-26T19:09:17.111Z,5.40
2022-07-26T19:11:46.922Z,6.23
2022-07-26T19:14:13.952Z,6.13
2022-07-26T19:16:40.846Z,9.93
2022-07-26T19:19:07.886Z,8.53
2022-07-26T19:21:35.953Z,3.57
2022-07-26T19:24:02.807Z,2.67
2022-07-26T19:26:30.037Z,0.90
2022-07-26T19:28:57.357Z,1.47
2022-07-26T19:31:24.273Z,1.23
2022-07-26T19:33:52.076Z,1.43
2022-07-26T19:36:25.645Z,2.00
2022-07-26T19:38:54.103Z,1.37
2022-07-26T19:41:20.954Z,1.30
2022-07-26T19:43:47.948Z,4.83
2022-07-26T19:46:14.955Z,6.47
2022-07-26T19:48:41.964Z,6.73
2022-07-26T19:51:08.943Z,8.33
2022-07-26T19:53:35.831Z,4.00
2022-07-26T19:56:03.705Z,2.60
2022-07-26T19:58:30.907Z,2.73
2022-07-26T20:00:58.375Z,1.87
2022-07-26T20:03:25.326Z,0.90
2022-07-26T20:05:53.863Z,2.33
2022-07-26T20:08:21.098Z,1.13
2022-07-26T20:10:48.041Z,3.57
2022-07-26T20:13:15.089Z,6.60
2022-07-26T20:15:42.175Z,6.90
2022-07-26T20:18:10.302Z,9.13
2022-07-26T20:20:37.226Z,7.93
2022-07-26T20:23:06.737Z,6.90
2022-07-26T20:25:33.992Z,7.77
2022-07-26T20:28:00.919Z,2.77
2022-07-26T20:30:28.642Z,0.80
2022-07-26T20:32:55.622Z,1.10
2022-07-26T20:35:22.871Z,1.00
2022-07-26T20:37:49.702Z,1.63
2022-07-26T20:40:17.886Z,9.73
2022-07-26T20:42:45.443Z,6.63
2022-07-26T20:45:14.708Z,7.90
2022-07-26T20:47:42.911Z,9.33
2022-07-26T20:50:11.247Z,10.03
2022-07-26T20:52:38.406Z,8.60
2022-07-26T20:55:06.022Z,4.60
2022-07-26T20:57:33.078Z,2.50
2022-07-26T21:00:00.188Z,1.37
2022-07-26T21:02:27.662Z,1.27
2022-07-26T21:04:54.959Z,1.07
2022-07-26T21:07:21.948Z,1.70
2022-07-26T21:09:48.865Z,2.40
2022-07-26T21:12:15.739Z,7.70
2022-07-26T21:14:42.672Z,8.93
2022-07-26T21:17:12.195Z,7.63
2022-07-26T21:19:39.609Z,9.47
2022-07-26T21:22:06.753Z,10.37
2022-07-26T21:24:35.121Z,6.10
2022-07-26T21:27:05.807Z,2.67
2022-07-26T21:29:39.498Z,2.73
2022-07-26T21:32:06.800Z,8.67
2022-07-26T21:34:36.760Z,7.80
2022-07-26T21:37:04.807Z,7.63
2022-07-26T21:39:31.725Z,2.93
2022-07-26T21:41:58.854Z,1.13
2022-07-26T21:44:27.021Z,1.07
2022-07-26T21:46:55.087Z,1.10
2022-07-26T21:49:22.257Z,0.90
2022-07-26T21:51:49.188Z,2.50
2022-07-26T21:54:16.347Z,6.93
2022-07-26T21:56:43.346Z,7.67
2022-07-26T21:59:10.513Z,9.60
2022-07-26T22:01:37.798Z,9.50
2022-07-26T22:04:05.046Z,4.90
2022-07-26T22:06:31.959Z,2.67
2022-07-26T22:08:59.029Z,1.00
2022-07-26T22:11:26.014Z,1.03
2022-07-26T22:13:52.909Z,1.00
2022-07-26T22:16:19.810Z,2.23
2022-07-26T22:18:47.147Z,7.10
2022-07-26T22:21:14.137Z,8.03
2022-07-26T22:23:41.014Z,9.27
2022-07-26T22:26:07.947Z,9.47
2022-07-26T22:28:34.891Z,5.10
2022-07-26T22:31:01.997Z,2.30
2022-07-26T22:33:29.191Z,1.00
2022-07-26T22:35:56.854Z,1.63
2022-07-26T22:38:24.190Z,0.90
2022-07-26T22:40:51.314Z,2.60
2022-07-26T22:43:18.169Z,4.20
2022-07-26T22:45:45.470Z,8.10
2022-07-26T22:48:12.502Z,9.87
2022-07-26T22:50:39.776Z,8.17
2022-07-26T22:53:06.679Z,8.73
2022-07-26T22:55:33.845Z,5.87
2022-07-26T22:58:01.409Z,2.87
2022-07-26T23:00:28.757Z,0.87
2022-07-26T23:02:55.943Z,1.30
2022-07-26T23:05:25.536Z,0.90
2022-07-26T23:08:36.721Z,9.43
2022-07-26T23:10:56.881Z,1.20
2022-07-26T23:13:23.855Z,1.10
2022-07-26T23:15:54.520Z,1.17
2022-07-26T23:18:23.758Z,0.90
2022-07-26T23:20:50.594Z,1.10
2022-07-26T23:23:17.481Z,5.90
2022-07-26T23:25:44.313Z,8.03
2022-07-26T23:28:24.774Z,9.03
2022-07-26T23:31:01.248Z,2.93
2022-07-26T23:33:51.585Z,1.10
2022-07-26T23:36:15.109Z,9.37
2022-07-26T23:38:42.548Z,10.77
2022-07-26T23:41:09.363Z,9.40
2022-07-26T23:43:36.516Z,5.20
2022-07-26T23:46:03.547Z,4.40
2022-07-26T23:48:31.043Z,1.60
2022-07-26T23:50:58.394Z,1.07
2022-07-26T23:53:27.080Z,1.40
2022-07-26T23:55:54.376Z,1.00
2022-07-26T23:58:21.856Z,1.77
